Time;durP1;ratioP1;P1;durP2;ratioP2;P2;SDS_P1;SDS_P2;PMS_P1;PMS_P2;Temp;Humidity;BMP_temperature;BMP_pressure;BME280_temperature;BME280_humidity;BME280_pressure;Samples;Min_cycle;Max_cycle;Signal;HPM_P1;HPM_P2
2022/11/23 00:01:31;;;;;;;7.68;4.68;;;;;;;;;;5090200;28;20579;-40
2022/11/23 00:04:00;;;;;;;8.20;4.63;;;;;;;;;;5089964;28;20032;-40
2022/11/23 00:06:26;;;;;;;9.50;4.55;;;;;;;;;;5090154;28;20036;-40
2022/11/23 00:08:53;;;;;;;7.45;4.50;;;;;;;;;;5102643;28;20027;-39
2022/11/23 00:11:20;;;;;;;8.05;4.68;;;;;;;;;;5109130;28;20136;-40
2022/11/23 00:13:46;;;;;;;6.60;3.72;;;;;;;;;;5109491;28;20069;-40
2022/11/23 00:16:16;;;;;;;6.95;4.60;;;;;;;;;;5110034;28;20023;-40
2022/11/23 00:18:42;;;;;;;7.13;4.07;;;;;;;;;;5110245;28;20379;-40
2022/11/23 00:21:13;;;;;;;6.50;3.38;;;;;;;;;;5110007;28;20494;-40
2022/11/23 00:23:39;;;;;;;6.65;3.60;;;;;;;;;;5108080;28;20027;-40
2022/11/23 00:26:05;;;;;;;5.25;3.15;;;;;;;;;;5109300;28;20036;-40
2022/11/23 00:28:32;;;;;;;4.55;3.22;;;;;;;;;;5109273;28;20023;-40
2022/11/23 00:30:58;;;;;;;5.18;3.20;;;;;;;;;;5109151;28;20035;-40
2022/11/23 00:33:24;;;;;;;4.47;2.80;;;;;;;;;;5108656;28;20016;-40
2022/11/23 00:36:04;;;;;;;5.00;2.60;;;;;;;;;;5109174;28;20027;-40
2022/11/23 00:38:30;;;;;;;3.97;2.60;;;;;;;;;;5107203;28;20424;-40
2022/11/23 00:41:10;;;;;;;4.95;2.83;;;;;;;;;;5109162;28;20034;-39
2022/11/23 00:43:36;;;;;;;4.85;2.95;;;;;;;;;;5109162;28;20495;-40
2022/11/23 00:46:22;;;;;;;4.32;2.83;;;;;;;;;;5109131;28;20027;-40
2022/11/23 00:48:50;;;;;;;3.88;2.45;;;;;;;;;;5108954;28;20154;-40
2022/11/23 00:51:17;;;;;;;4.93;2.65;;;;;;;;;;5106337;28;20036;-40
2022/11/23 00:53:43;;;;;;;3.95;2.60;;;;;;;;;;5109033;28;20026;-40
2022/11/23 00:56:09;;;;;;;4.95;2.80;;;;;;;;;;5107145;28;20093;-40
2022/11/23 00:58:38;;;;;;;5.05;2.70;;;;;;;;;;5094759;28;20456;-40
2022/11/23 01:01:06;;;;;;;5.05;3.00;;;;;;;;;;5088615;28;20032;-40
2022/11/23 06:11:08;;;;;;;3.20;2.20;;;;;;;;;;5113390;28;20509;-40
2022/11/23 06:13:34;;;;;;;4.00;2.40;;;;;;;;;;5113867;28;20027;-40
2022/11/23 06:16:00;;;;;;;3.65;2.20;;;;;;;;;;5111991;28;20019;-40
2022/11/23 06:18:26;;;;;;;4.30;2.33;;;;;;;;;;5113111;28;20015;-40
2022/11/23 06:20:52;;;;;;;2.85;2.10;;;;;;;;;;5113495;28;20032;-39
2022/11/23 06:23:18;;;;;;;4.00;1.85;;;;;;;;;;5113323;28;20103;-40
2022/11/23 06:25:44;;;;;;;3.33;2.15;;;;;;;;;;5113073;28;20495;-40
2022/11/23 06:28:09;;;;;;;3.40;1.90;;;;;;;;;;5111683;28;20035;-40
2022/11/23 06:30:35;;;;;;;3.00;2.05;;;;;;;;;;5091908;28;20090;-39
2022/11/23 06:33:03;;;;;;;4.22;2.30;;;;;;;;;;5092669;28;20024;-40
2022/11/23 06:35:29;;;;;;;3.85;2.53;;;;;;;;;;5092994;28;20062;-40
2022/11/23 06:37:55;;;;;;;4.47;2.38;;;;;;;;;;5092366;28;20024;-40
2022/11/23 06:40:21;;;;;;;3.50;2.50;;;;;;;;;;5092396;28;20035;-40
2022/11/23 06:42:47;;;;;;;5.63;2.80;;;;;;;;;;5092771;28;20032;-40
2022/11/23 06:45:13;;;;;;;3.60;2.20;;;;;;;;;;5092715;28;20074;-40
2022/11/23 06:47:39;;;;;;;4.05;2.78;;;;;;;;;;5092671;28;20028;-40
2022/11/23 06:50:05;;;;;;;3.30;2.50;;;;;;;;;;5092617;28;20605;-40
2022/11/23 06:52:31;;;;;;;4.32;2.63;;;;;;;;;;5103023;28;20028;-40
2022/11/23 06:54:57;;;;;;;3.95;2.38;;;;;;;;;;5112503;28;20031;-40
2022/11/23 06:57:23;;;;;;;3.78;2.30;;;;;;;;;;5112735;28;20022;-40
2022/11/23 06:59:49;;;;;;;3.92;2.53;;;;;;;;;;5109211;28;20508;-39
2022/11/23 07:02:15;;;;;;;4.07;2.63;;;;;;;;;;5111874;28;20027;-39
2022/11/23 07:04:41;;;;;;;5.38;2.72;;;;;;;;;;5112903;28;20502;-39
2022/11/23 07:07:08;;;;;;;4.90;2.88;;;;;;;;;;5111063;28;20020;-40
2022/11/23 07:09:34;;;;;;;5.40;3.13;;;;;;;;;;5113386;28;20032;-40
2022/11/23 07:12:00;;;;;;;4.60;3.05;;;;;;;;;;5113136;28;20032;-40
2022/11/23 07:14:26;;;;;;;3.67;2.40;;;;;;;;;;5113308;28;21106;-40
2022/11/23 07:16:52;;;;;;;4.47;3.10;;;;;;;;;;5112958;28;20050;-39
2022/11/23 07:19:18;;;;;;;4.35;2.58;;;;;;;;;;5112689;28;20023;-40
2022/11/23 07:21:45;;;;;;;4.40;2.65;;;;;;;;;;5096159;28;20020;-39
2022/11/23 07:24:11;;;;;;;3.90;2.53;;;;;;;;;;5104789;28;20072;-40
2022/11/23 07:26:37;;;;;;;3.88;2.13;;;;;;;;;;5113335;28;20023;-40
2022/11/23 07:29:03;;;;;;;3.92;2.92;;;;;;;;;;5113331;27;20031;-40
2022/11/23 07:31:29;;;;;;;3.30;2.63;;;;;;;;;;5101647;28;20070;-40
2022/11/23 07:33:55;;;;;;;5.13;2.60;;;;;;;;;;5100256;28;20024;-37
2022/11/23 07:36:21;;;;;;;3.42;2.38;;;;;;;;;;5092539;28;20024;-37
2022/11/23 07:38:47;;;;;;;3.30;2.38;;;;;;;;;;5092451;28;20107;-37
2022/11/23 07:41:13;;;;;;;4.60;2.85;;;;;;;;;;5092379;28;20032;-37
2022/11/23 07:43:39;;;;;;;3.97;2.60;;;;;;;;;;5092266;28;20024;-37
2022/11/23 07:46:05;;;;;;;4.03;2.58;;;;;;;;;;5095290;28;20034;-37
2022/11/23 07:48:31;;;;;;;4.45;3.00;;;;;;;;;;5097772;28;20039;-37
2022/11/23 07:50:57;;;;;;;3.90;2.92;;;;;;;;;;5100137;28;20024;-37
2022/11/23 07:53:23;;;;;;;4.20;2.40;;;;;;;;;;5112365;28;20055;-37
2022/11/23 07:55:49;;;;;;;4.88;2.75;;;;;;;;;;5086965;28;20038;-37
2022/11/23 07:58:15;;;;;;;3.08;2.38;;;;;;;;;;5076972;28;20437;-37
2022/11/23 08:00:41;;;;;;;3.85;2.70;;;;;;;;;;5083423;28;20043;-37
2022/11/23 08:03:09;;;;;;;3.00;2.40;;;;;;;;;;5103871;28;20076;-37
2022/11/23 08:05:35;;;;;;;4.63;3.00;;;;;;;;;;5105214;28;20068;-38
2022/11/23 08:08:02;;;;;;;6.15;3.55;;;;;;;;;;5100183;28;20020;-38
2022/11/23 08:10:29;;;;;;;3.20;2.35;;;;;;;;;;5077427;28;20927;-38
2022/11/23 08:12:58;;;;;;;5.53;3.10;;;;;;;;;;5096373;28;20050;-38
2022/11/23 08:15:26;;;;;;;3.75;2.35;;;;;;;;;;5091704;28;20059;-38
2022/11/23 08:17:59;;;;;;;4.72;2.92;;;;;;;;;;5098925;28;20375;-38
2022/11/23 08:20:25;;;;;;;4.00;2.53;;;;;;;;;;5098174;28;20024;-39
2022/11/23 08:22:54;;;;;;;3.80;2.40;;;;;;;;;;5091441;28;20048;-38
2022/11/23 08:25:20;;;;;;;5.35;2.45;;;;;;;;;;5102547;28;20024;-38
2022/11/23 08:27:46;;;;;;;5.10;2.47;;;;;;;;;;5102710;28;20406;-38
2022/11/23 08:30:13;;;;;;;4.22;2.38;;;;;;;;;;5106043;27;20169;-38
2022/11/23 08:32:39;;;;;;;5.85;3.05;;;;;;;;;;5131862;27;20068;-38
2022/11/23 08:35:05;;;;;;;4.60;2.75;;;;;;;;;;5111340;27;20051;-38
2022/11/23 08:37:31;;;;;;;5.28;2.85;;;;;;;;;;5093882;28;20031;-38
2022/11/23 08:39:57;;;;;;;4.05;2.60;;;;;;;;;;5090698;28;20024;-38
2022/11/23 08:42:23;;;;;;;5.80;3.05;;;;;;;;;;5109202;28;20406;-38
2022/11/23 08:44:49;;;;;;;3.55;2.45;;;;;;;;;;5110985;28;20115;-38
2022/11/23 08:47:15;;;;;;;4.38;2.80;;;;;;;;;;5110955;28;20034;-38
2022/11/23 08:49:41;;;;;;;3.60;2.72;;;;;;;;;;5110946;28;20034;-38
2022/11/23 08:52:07;;;;;;;3.97;2.75;;;;;;;;;;5101283;28;20039;-38
2022/11/23 08:54:33;;;;;;;4.70;2.70;;;;;;;;;;5093025;28;20494;-38
2022/11/23 08:56:59;;;;;;;3.10;2.38;;;;;;;;;;5101028;28;20019;-39
2022/11/23 08:59:25;;;;;;;4.47;3.10;;;;;;;;;;5100484;28;20470;-38
2022/11/23 09:01:51;;;;;;;4.15;2.53;;;;;;;;;;5101768;28;20063;-38
2022/11/23 09:04:17;;;;;;;3.65;2.50;;;;;;;;;;5110917;28;20475;-39
2022/11/23 09:06:43;;;;;;;3.92;2.65;;;;;;;;;;5110575;28;20479;-38
2022/11/23 09:09:09;;;;;;;3.85;2.50;;;;;;;;;;5110972;28;20372;-38
2022/11/23 09:11:35;;;;;;;4.85;2.78;;;;;;;;;;5110491;28;20474;-39
2022/11/23 09:14:01;;;;;;;3.72;2.67;;;;;;;;;;5110851;28;20441;-38
2022/11/23 09:16:28;;;;;;;4.25;2.65;;;;;;;;;;5107536;28;20042;-38
2022/11/23 09:18:57;;;;;;;4.88;3.08;;;;;;;;;;5118567;28;20027;-38
2022/11/23 09:21:28;;;;;;;3.85;2.60;;;;;;;;;;5123146;28;20104;-38
2022/11/23 09:23:54;;;;;;;4.57;2.92;;;;;;;;;;5102496;28;20027;-39
2022/11/23 09:26:20;;;;;;;4.03;2.55;;;;;;;;;;5103638;28;20111;-38
2022/11/23 09:28:46;;;;;;;3.42;2.08;;;;;;;;;;5103027;28;20122;-39
2022/11/23 09:31:12;;;;;;;4.32;2.17;;;;;;;;;;5100236;28;20032;-39
2022/11/23 09:33:38;;;;;;;4.25;2.35;;;;;;;;;;5109119;28;20077;-39
2022/11/23 09:36:04;;;;;;;3.92;2.10;;;;;;;;;;5098663;28;20376;-39
2022/11/23 09:38:30;;;;;;;2.92;2.00;;;;;;;;;;5092879;28;20625;-39
2022/11/23 09:41:03;;;;;;;4.57;1.98;;;;;;;;;;5103607;28;20098;-39
2022/11/23 09:43:56;;;;;;;2.25;1.52;;;;;;;;;;5103085;28;20044;-38
2022/11/23 09:46:45;;;;;;;2.30;1.75;;;;;;;;;;5069696;28;20456;-38
2022/11/23 09:49:14;;;;;;;3.08;1.52;;;;;;;;;;5100961;28;20035;-39
2022/11/23 09:51:42;;;;;;;1.40;1.30;;;;;;;;;;5102626;28;20368;-39
2022/11/23 09:54:28;;;;;;;2.30;1.50;;;;;;;;;;5102261;28;20059;-38
2022/11/23 09:56:56;;;;;;;3.13;1.77;;;;;;;;;;5101822;28;20038;-39
2022/11/23 09:59:41;;;;;;;2.65;1.48;;;;;;;;;;5102349;28;20035;-38
2022/11/23 10:02:34;;;;;;;3.40;1.60;;;;;;;;;;5102522;28;20042;-39
2022/11/23 10:05:00;;;;;;;3.22;1.50;;;;;;;;;;5095958;28;20055;-38
2022/11/23 10:07:39;;;;;;;2.47;1.33;;;;;;;;;;5104233;28;20035;-39
2022/11/23 10:10:24;;;;;;;2.05;1.23;;;;;;;;;;5103509;28;20107;-38
2022/11/23 10:12:49;;;;;;;;;;;;;;;;;;5105972;28;20035;-38
2022/11/23 10:15:36;;;;;;;1.73;1.08;;;;;;;;;;5101447;28;20410;-38
2022/11/23 10:18:08;;;;;;;1.75;1.15;;;;;;;;;;5103610;28;20028;-38
2022/11/23 10:20:42;;;;;;;2.05;1.10;;;;;;;;;;5102767;28;20893;-39
2022/11/23 10:23:13;;;;;;;2.30;1.33;;;;;;;;;;5104874;28;20039;-39
2022/11/23 10:25:57;;;;;;;1.42;0.88;;;;;;;;;;5101476;28;20051;-39
2022/11/23 10:28:23;;;;;;;1.58;1.00;;;;;;;;;;5105874;28;20039;-39
2022/11/23 10:31:00;;;;;;;1.77;1.02;;;;;;;;;;5103335;28;20454;-39
2022/11/23 10:33:29;;;;;;;1.13;0.90;;;;;;;;;;5080013;28;20020;-39
2022/11/23 10:35:55;;;;;;;1.65;1.08;;;;;;;;;;5100254;28;20027;-38
2022/11/23 10:38:24;;;;;;;2.25;1.23;;;;;;;;;;5100697;28;20040;-39
2022/11/23 10:40:58;;;;;;;1.23;0.95;;;;;;;;;;5103016;28;20034;-39
2022/11/23 10:43:26;;;;;;;1.80;0.90;;;;;;;;;;5103797;28;20491;-39
2022/11/23 10:46:12;;;;;;;1.38;0.98;;;;;;;;;;5103605;28;20095;-38
2022/11/23 10:48:38;;;;;;;1.05;0.90;;;;;;;;;;5105723;28;20537;-39
2022/11/23 10:51:21;;;;;;;1.13;0.98;;;;;;;;;;5104792;28;20030;-39
2022/11/23 10:53:55;;;;;;;1.02;0.90;;;;;;;;;;5105199;28;20517;-39
2022/11/23 10:56:21;;;;;;;1.63;1.23;;;;;;;;;;5101409;28;20077;-39
2022/11/23 10:58:48;;;;;;;2.10;1.40;;;;;;;;;;5106057;28;20106;-39
2022/11/23 11:01:15;;;;;;;2.75;1.60;;;;;;;;;;5105567;28;21039;-39
2022/11/23 11:03:42;;;;;;;3.20;1.50;;;;;;;;;;5105554;28;20114;-39
2022/11/23 11:06:08;;;;;;;1.70;1.20;;;;;;;;;;5101095;28;20042;-39
2022/11/23 11:08:36;;;;;;;1.83;1.08;;;;;;;;;;5105994;28;20122;-39
2022/11/23 11:11:20;;;;;;;2.38;1.13;;;;;;;;;;5104632;28;20420;-39
2022/11/23 11:13:47;;;;;;;2.05;1.20;;;;;;;;;;5106276;28;20042;-39
2022/11/23 11:16:26;;;;;;;1.60;0.98;;;;;;;;;;5103289;28;20031;-39
2022/11/23 11:18:52;;;;;;;1.65;1.00;;;;;;;;;;5105336;28;20036;-39
2022/11/23 11:21:33;;;;;;;1.48;1.05;;;;;;;;;;5105079;28;20107;-39
2022/11/23 11:24:03;;;;;;;1.70;1.02;;;;;;;;;;5103201;28;20049;-39
2022/11/23 11:26:30;;;;;;;1.63;1.00;;;;;;;;;;5103165;28;20059;-39
2022/11/23 11:29:04;;;;;;;0.88;0.80;;;;;;;;;;5105584;28;20039;-39
2022/11/23 11:31:30;;;;;;;0.85;0.65;;;;;;;;;;5103971;28;20023;-39
2022/11/23 11:34:01;;;;;;;1.17;0.75;;;;;;;;;;5104892;28;20834;-39
2022/11/23 11:36:30;;;;;;;0.93;0.73;;;;;;;;;;5103362;28;20031;-39
2022/11/23 11:38:58;;;;;;;1.00;0.82;;;;;;;;;;5099346;28;20027;-39
2022/11/23 11:41:26;;;;;;;1.58;0.98;;;;;;;;;;5104385;28;20455;-39
2022/11/23 11:44:12;;;;;;;0.73;0.65;;;;;;;;;;5104827;28;20031;-39
2022/11/23 11:46:44;;;;;;;0.95;0.63;;;;;;;;;;5100454;28;20050;-39
2022/11/23 11:49:14;;;;;;;1.00;0.68;;;;;;;;;;5102385;28;20023;-39
2022/11/23 11:51:48;;;;;;;1.38;0.75;;;;;;;;;;5103891;27;20031;-39
2022/11/23 11:54:26;;;;;;;1.20;0.80;;;;;;;;;;5104508;28;20039;-39
2022/11/23 11:57:00;;;;;;;1.38;1.00;;;;;;;;;;5102859;28;20034;-39
2022/11/23 11:59:29;;;;;;;2.92;1.10;;;;;;;;;;5104296;28;20578;-39
2022/11/23 12:02:14;;;;;;;3.20;1.05;;;;;;;;;;5104562;28;20024;-39
2022/11/23 12:04:43;;;;;;;2.53;1.00;;;;;;;;;;5103666;28;20437;-39
2022/11/23 12:07:09;;;;;;;1.58;0.90;;;;;;;;;;5099644;28;20045;-39
2022/11/23 12:09:38;;;;;;;1.08;0.70;;;;;;;;;;5096981;28;20554;-39
2022/11/23 12:12:07;;;;;;;1.55;1.08;;;;;;;;;;5090606;28;20024;-39
2022/11/23 12:14:35;;;;;;;0.63;0.52;;;;;;;;;;5100160;28;20073;-39
2022/11/23 12:17:07;;;;;;;0.63;0.63;;;;;;;;;;5097814;28;20030;-39
2022/11/23 12:19:39;;;;;;;1.85;1.10;;;;;;;;;;5101802;28;20016;-39
2022/11/23 12:22:11;;;;;;;2.03;1.15;;;;;;;;;;5100938;28;20088;-39
2022/11/23 12:24:37;;;;;;;2.17;1.00;;;;;;;;;;5101840;28;20034;-39
2022/11/23 12:27:12;;;;;;;4.05;1.00;;;;;;;;;;5098959;28;20032;-39
2022/11/23 12:29:59;;;;;;;1.73;1.05;;;;;;;;;;5087430;28;20135;-39
2022/11/23 12:32:40;;;;;;;1.45;0.88;;;;;;;;;;5101917;28;20089;-38
2022/11/23 12:35:25;;;;;;;2.15;1.30;;;;;;;;;;5099180;28;20090;-39
2022/11/23 12:38:17;;;;;;;1.17;0.80;;;;;;;;;;5102288;28;20114;-39
2022/11/23 12:40:50;;;;;;;0.90;0.73;;;;;;;;;;5100744;28;20028;-39
2022/11/23 12:43:19;;;;;;;0.70;0.60;;;;;;;;;;5102122;28;20059;-39
2022/11/23 12:45:50;;;;;;;1.52;0.95;;;;;;;;;;5099164;28;20533;-38
2022/11/23 12:48:45;;;;;;;1.52;1.30;;;;;;;;;;5102782;28;20055;-39
2022/11/23 12:51:21;;;;;;;1.45;1.20;;;;;;;;;;5024605;28;20064;-39
2022/11/23 12:54:12;;;;;;;3.40;2.05;;;;;;;;;;5096475;28;20072;-39
2022/11/23 12:56:53;;;;;;;2.10;1.30;;;;;;;;;;5098633;28;20031;-39
2022/11/23 12:59:21;;;;;;;1.75;1.20;;;;;;;;;;5100911;28;20454;-39
2022/11/23 13:01:53;;;;;;;1.40;0.90;;;;;;;;;;5102336;28;20031;-39
2022/11/23 13:04:46;;;;;;;1.80;1.10;;;;;;;;;;5100927;28;20518;-39
2022/11/23 13:07:21;;;;;;;1.73;1.10;;;;;;;;;;5101052;28;20089;-39
2022/11/23 13:09:50;;;;;;;2.10;1.20;;;;;;;;;;5100750;28;20032;-39
2022/11/23 13:12:38;;;;;;;1.75;1.02;;;;;;;;;;5102306;28;20042;-39
2022/11/23 13:15:10;;;;;;;2.17;1.20;;;;;;;;;;5097965;28;20036;-39
2022/11/23 13:17:36;;;;;;;1.40;0.90;;;;;;;;;;5100763;28;20031;-39
2022/11/23 13:20:21;;;;;;;2.97;1.58;;;;;;;;;;5100478;28;20462;-39
2022/11/23 13:22:47;;;;;;;2.47;1.50;;;;;;;;;;5102058;28;20028;-39
2022/11/23 13:25:19;;;;;;;2.20;1.38;;;;;;;;;;5099264;28;20130;-39
2022/11/23 13:27:48;;;;;;;2.03;1.40;;;;;;;;;;5102986;28;20035;-39
2022/11/23 13:30:24;;;;;;;2.13;1.33;;;;;;;;;;5101035;28;20047;-39
2022/11/23 13:32:58;;;;;;;1.83;1.17;;;;;;;;;;5102133;28;20092;-39
2022/11/23 13:35:24;;;;;;;1.55;0.88;;;;;;;;;;5091495;28;20051;-39
2022/11/23 13:37:56;;;;;;;2.08;1.20;;;;;;;;;;5099176;28;20631;-39
2022/11/23 13:40:29;;;;;;;0.80;0.77;;;;;;;;;;5091463;28;20038;-39
2022/11/23 13:43:01;;;;;;;1.48;0.90;;;;;;;;;;5104984;28;20066;-39
2022/11/23 13:45:30;;;;;;;1.15;0.80;;;;;;;;;;5094217;28;20059;-39
2022/11/23 13:48:17;;;;;;;1.02;0.80;;;;;;;;;;5092896;28;20499;-39
2022/11/23 13:50:52;;;;;;;1.30;0.73;;;;;;;;;;5093465;28;20024;-39
2022/11/23 13:53:38;;;;;;;1.42;1.05;;;;;;;;;;5097617;27;20027;-38
2022/11/23 13:56:23;;;;;;;1.77;0.95;;;;;;;;;;5102469;28;20024;-38
2022/11/23 13:58:54;;;;;;;2.03;1.10;;;;;;;;;;5092568;28;20103;-38
2022/11/23 14:01:39;;;;;;;1.05;0.82;;;;;;;;;;5096151;28;20085;-38
2022/11/23 14:04:21;;;;;;;1.92;1.13;;;;;;;;;;5091522;28;20027;-38
2022/11/23 14:06:55;;;;;;;1.65;1.00;;;;;;;;;;5091907;28;20077;-39
2022/11/23 14:09:21;;;;;;;;;;;;;;;;;;5095351;28;20027;-39
2022/11/23 14:11:50;;;;;;;3.13;1.40;;;;;;;;;;5109031;28;20263;-39
2022/11/23 14:14:19;;;;;;;3.45;1.60;;;;;;;;;;5102121;28;20106;-38
2022/11/23 14:16:48;;;;;;;2.95;1.40;;;;;;;;;;5112590;28;20020;-38
2022/11/23 14:19:23;;;;;;;2.17;1.30;;;;;;;;;;5111773;28;20027;-38
2022/11/23 14:22:06;;;;;;;2.28;1.52;;;;;;;;;;5111911;28;20027;-39
2022/11/23 14:24:42;;;;;;;1.80;1.35;;;;;;;;;;5111683;28;20032;-38
2022/11/23 14:27:34;;;;;;;1.20;1.00;;;;;;;;;;5111715;28;20024;-38
2022/11/23 14:30:10;;;;;;;1.27;0.88;;;;;;;;;;5064849;28;20562;-38
2022/11/23 14:32:42;;;;;;;1.30;0.95;;;;;;;;;;5090718;28;20028;-38
2022/11/23 14:35:32;;;;;;;2.95;1.30;;;;;;;;;;5091292;28;20024;-38
2022/11/23 14:38:30;;;;;;;2.45;1.23;;;;;;;;;;5091042;28;20085;-38
2022/11/23 14:41:08;;;;;;;2.22;1.10;;;;;;;;;;5049468;28;20039;-38
2022/11/23 14:43:35;;;;;;;2.47;1.15;;;;;;;;;;5111557;28;20492;-38
2022/11/23 14:46:06;;;;;;;2.10;1.15;;;;;;;;;;5110105;28;20028;-38
2022/11/23 14:48:33;;;;;;;1.27;0.85;;;;;;;;;;5111201;28;20358;-38
2022/11/23 14:51:01;;;;;;;1.45;1.00;;;;;;;;;;5109058;28;20046;-38
2022/11/23 14:53:29;;;;;;;0.95;0.80;;;;;;;;;;5090345;28;20070;-38
2022/11/23 14:55:55;;;;;;;1.13;0.75;;;;;;;;;;5091470;28;20091;-38
2022/11/23 14:58:24;;;;;;;1.38;1.00;;;;;;;;;;5090380;28;20483;-38
2022/11/23 15:00:50;;;;;;;1.17;0.88;;;;;;;;;;5090011;28;20517;-38
2022/11/23 15:03:17;;;;;;;0.90;0.70;;;;;;;;;;5098505;28;20413;-39
2022/11/23 15:05:52;;;;;;;0.85;0.70;;;;;;;;;;5111608;28;20080;-38
2022/11/23 15:08:21;;;;;;;2.65;1.80;;;;;;;;;;5099848;28;20016;-39
2022/11/23 15:10:47;;;;;;;7.45;3.63;;;;;;;;;;5091150;28;20027;-38
2022/11/23 15:13:33;;;;;;;3.20;2.25;;;;;;;;;;5091030;28;20035;-39
2022/11/23 15:15:59;;;;;;;2.38;1.30;;;;;;;;;;5106483;28;20084;-39
2022/11/23 15:18:31;;;;;;;1.05;0.75;;;;;;;;;;5112009;28;20027;-39
2022/11/23 15:20:59;;;;;;;4.47;0.93;;;;;;;;;;5110126;28;20019;-39
2022/11/23 15:23:29;;;;;;;0.90;0.85;;;;;;;;;;5112006;28;20016;-39
2022/11/23 15:25:56;;;;;;;1.40;1.00;;;;;;;;;;5112080;28;20020;-39
2022/11/23 15:28:25;;;;;;;1.55;1.15;;;;;;;;;;5094426;28;20025;-39
2022/11/23 15:30:51;;;;;;;1.10;1.00;;;;;;;;;;5090885;28;20028;-39
2022/11/23 15:33:19;;;;;;;1.45;1.13;;;;;;;;;;5094700;28;20030;-39
2022/11/23 15:35:46;;;;;;;1.45;1.30;;;;;;;;;;5111375;28;20024;-39
2022/11/23 15:38:13;;;;;;;1.90;1.50;;;;;;;;;;5101434;28;20068;-39
2022/11/23 15:40:41;;;;;;;2.40;1.50;;;;;;;;;;5090751;28;20035;-39
2022/11/23 15:43:13;;;;;;;2.30;1.55;;;;;;;;;;5090629;27;20036;-39
2022/11/23 15:45:45;;;;;;;1.90;1.48;;;;;;;;;;5090642;28;20054;-39
2022/11/23 15:48:11;;;;;;;2.05;1.33;;;;;;;;;;5091658;28;20075;-39
2022/11/23 15:50:57;;;;;;;1.65;1.35;;;;;;;;;;5099103;28;20035;-39
2022/11/23 15:53:28;;;;;;;1.95;1.02;;;;;;;;;;5099088;28;20047;-39
2022/11/23 15:55:58;;;;;;;1.70;1.17;;;;;;;;;;5111092;28;20168;-39
2022/11/23 15:58:25;;;;;;;1.13;0.90;;;;;;;;;;5107228;28;20028;-39
2022/11/23 16:01:06;;;;;;;0.93;0.90;;;;;;;;;;5099114;28;20016;-39
2022/11/23 16:04:01;;;;;;;1.52;1.00;;;;;;;;;;5108978;27;20034;-39
2022/11/23 16:06:35;;;;;;;0.93;0.90;;;;;;;;;;5090856;28;20027;-39
2022/11/23 16:09:01;;;;;;;0.85;0.80;;;;;;;;;;5091922;28;20024;-39
2022/11/23 16:11:29;;;;;;;1.33;0.88;;;;;;;;;;5092712;28;20035;-39
2022/11/23 16:14:11;;;;;;;1.95;1.67;;;;;;;;;;5106814;27;20073;-39
2022/11/23 16:16:37;;;;;;;1.65;1.30;;;;;;;;;;5104819;28;20027;-39
2022/11/23 16:19:05;;;;;;;1.80;1.20;;;;;;;;;;5105590;28;20031;-39
2022/11/23 16:21:31;;;;;;;1.58;1.35;;;;;;;;;;5090002;28;20115;-39
2022/11/23 16:23:57;;;;;;;1.58;1.20;;;;;;;;;;5103667;28;20080;-39
2022/11/23 16:26:30;;;;;;;1.45;1.10;;;;;;;;;;5110341;28;20053;-39
2022/11/23 16:28:58;;;;;;;3.50;1.42;;;;;;;;;;5107283;28;20023;-39
2022/11/23 16:31:28;;;;;;;2.10;1.48;;;;;;;;;;5092627;28;20061;-39
2022/11/23 16:33:55;;;;;;;3.72;2.67;;;;;;;;;;5098550;28;20127;-39
2022/11/23 16:36:22;;;;;;;4.00;2.53;;;;;;;;;;5110246;28;20015;-39
2022/11/23 16:38:48;;;;;;;6.53;4.63;;;;;;;;;;5108958;28;20027;-39
2022/11/23 16:41:14;;;;;;;6.43;4.80;;;;;;;;;;5106155;28;20077;-39
2022/11/23 16:43:41;;;;;;;6.15;4.18;;;;;;;;;;5106643;28;20032;-39
2022/11/23 16:46:08;;;;;;;5.38;3.80;;;;;;;;;;5105880;28;20020;-39
2022/11/23 16:48:39;;;;;;;4.75;2.83;;;;;;;;;;5102529;28;20046;-39
2022/11/23 16:51:05;;;;;;;3.83;2.70;;;;;;;;;;5100652;28;20076;-39
2022/11/23 16:53:32;;;;;;;5.13;2.60;;;;;;;;;;5098822;28;20035;-39
2022/11/23 16:56:00;;;;;;;3.83;2.10;;;;;;;;;;5101913;28;20016;-39
2022/11/23 16:58:29;;;;;;;2.65;2.00;;;;;;;;;;5102809;28;20028;-39
2022/11/23 17:00:55;;;;;;;2.22;1.58;;;;;;;;;;5103758;28;20027;-39
2022/11/23 17:03:22;;;;;;;1.33;1.23;;;;;;;;;;5099174;28;20081;-39
2022/11/23 17:05:48;;;;;;;2.70;1.45;;;;;;;;;;5097709;28;20031;-39
2022/11/23 17:08:15;;;;;;;1.30;1.20;;;;;;;;;;5092946;28;20136;-39
2022/11/23 17:10:41;;;;;;;1.30;0.98;;;;;;;;;;5104030;28;20019;-39
2022/11/23 17:13:10;;;;;;;1.25;0.82;;;;;;;;;;5101808;28;20156;-39
2022/11/23 17:15:36;;;;;;;1.13;0.95;;;;;;;;;;5094772;28;20016;-39
2022/11/23 17:18:03;;;;;;;1.30;1.05;;;;;;;;;;5103315;28;20027;-39
2022/11/23 17:20:29;;;;;;;1.13;0.80;;;;;;;;;;5108298;28;20491;-39
2022/11/23 17:22:58;;;;;;;1.35;1.15;;;;;;;;;;5094134;28;20040;-39
2022/11/23 17:25:25;;;;;;;3.17;1.60;;;;;;;;;;5098064;28;20514;-39
2022/11/23 17:27:51;;;;;;;3.67;1.98;;;;;;;;;;5105788;28;20031;-39
2022/11/23 17:30:19;;;;;;;2.92;1.52;;;;;;;;;;5100563;28;20020;-39
2022/11/23 17:32:49;;;;;;;2.65;1.60;;;;;;;;;;5108260;28;20482;-39
2022/11/23 17:35:15;;;;;;;5.43;2.67;;;;;;;;;;5105868;28;20096;-39
2022/11/23 17:37:41;;;;;;;5.18;3.00;;;;;;;;;;5095132;28;20031;-39
2022/11/23 17:40:17;;;;;;;5.47;3.35;;;;;;;;;;5093948;28;20546;-40
2022/11/23 17:42:43;;;;;;;5.00;3.13;;;;;;;;;;5100861;28;20093;-39
2022/11/23 17:45:10;;;;;;;5.82;3.50;;;;;;;;;;5107038;28;20028;-39
2022/11/23 17:47:37;;;;;;;6.00;3.50;;;;;;;;;;5102855;28;20055;-39
2022/11/23 17:50:05;;;;;;;6.80;3.70;;;;;;;;;;5110731;28;20443;-39
2022/11/23 17:52:31;;;;;;;6.95;3.95;;;;;;;;;;5107260;28;20119;-39
2022/11/23 17:54:57;;;;;;;6.07;3.67;;;;;;;;;;5113074;28;20521;-39
2022/11/23 17:57:24;;;;;;;5.25;3.35;;;;;;;;;;5112591;28;20034;-39
2022/11/23 17:59:51;;;;;;;7.05;4.03;;;;;;;;;;5101823;28;20024;-39
2022/11/23 18:02:18;;;;;;;5.85;3.10;;;;;;;;;;5099682;28;20621;-39
2022/11/23 18:04:44;;;;;;;4.88;2.78;;;;;;;;;;5092960;28;20040;-39
2022/11/23 18:07:12;;;;;;;5.60;3.45;;;;;;;;;;5092456;28;20027;-39
2022/11/23 18:09:38;;;;;;;11.00;6.28;;;;;;;;;;5092497;28;20032;-39
2022/11/23 18:12:04;;;;;;;8.23;5.35;;;;;;;;;;5091475;28;20037;-39
2022/11/23 18:14:31;;;;;;;8.57;4.95;;;;;;;;;;5091630;28;20048;-39
2022/11/23 18:16:57;;;;;;;9.25;5.40;;;;;;;;;;5091553;28;20035;-39
2022/11/23 18:19:23;;;;;;;7.15;4.90;;;;;;;;;;5091540;28;20073;-39
2022/11/23 18:21:49;;;;;;;8.43;5.40;;;;;;;;;;5091487;28;20032;-39
2022/11/23 18:24:15;;;;;;;7.00;4.55;;;;;;;;;;5091304;28;20028;-39
2022/11/23 18:26:42;;;;;;;7.63;4.70;;;;;;;;;;5090319;28;20484;-39
2022/11/23 18:29:09;;;;;;;6.22;4.40;;;;;;;;;;5091675;28;20024;-39
2022/11/23 18:31:35;;;;;;;6.30;3.45;;;;;;;;;;5091217;28;20064;-39
2022/11/23 18:34:04;;;;;;;4.22;3.00;;;;;;;;;;5091234;28;20072;-39
2022/11/23 18:36:30;;;;;;;8.73;5.45;;;;;;;;;;5091137;28;20034;-39
2022/11/23 18:38:56;;;;;;;7.40;4.57;;;;;;;;;;5091191;28;20031;-39
2022/11/23 18:41:23;;;;;;;8.15;5.07;;;;;;;;;;5091176;28;20403;-39
2022/11/23 18:43:49;;;;;;;9.48;5.43;;;;;;;;;;5090991;28;20048;-39
2022/11/23 18:46:17;;;;;;;11.13;7.15;;;;;;;;;;5091505;28;20490;-39
2022/11/23 18:48:44;;;;;;;10.85;6.80;;;;;;;;;;5090949;28;20024;-39
2022/11/23 18:51:12;;;;;;;10.23;6.32;;;;;;;;;;5091405;28;20028;-39
2022/11/23 18:53:38;;;;;;;9.60;6.05;;;;;;;;;;5091739;28;20411;-39
2022/11/23 18:56:05;;;;;;;14.07;7.68;;;;;;;;;;5090904;28;20148;-39
2022/11/23 18:58:41;;;;;;;10.82;6.50;;;;;;;;;;5090829;28;20012;-39
2022/11/23 19:01:11;;;;;;;10.88;6.75;;;;;;;;;;5090725;28;20400;-39
2022/11/23 19:03:37;;;;;;;9.70;5.75;;;;;;;;;;5090601;28;20508;-39
2022/11/23 19:06:04;;;;;;;9.35;5.82;;;;;;;;;;5090655;28;20032;-39
2022/11/23 19:08:30;;;;;;;7.78;5.30;;;;;;;;;;5090768;28;20043;-39
2022/11/23 19:11:04;;;;;;;10.43;6.18;;;;;;;;;;5090513;28;20031;-39
2022/11/23 19:13:30;;;;;;;10.18;6.28;;;;;;;;;;5090604;28;20031;-39
2022/11/23 19:15:56;;;;;;;10.25;5.90;;;;;;;;;;5090393;28;20032;-39
2022/11/23 19:18:22;;;;;;;7.80;5.25;;;;;;;;;;5090346;28;20024;-39
2022/11/23 19:20:48;;;;;;;7.88;5.25;;;;;;;;;;5090351;28;20543;-39
2022/11/23 19:23:14;;;;;;;6.63;4.55;;;;;;;;;;5090290;28;20024;-39
2022/11/23 19:25:40;;;;;;;6.72;4.18;;;;;;;;;;5090879;28;20089;-39
2022/11/23 19:28:06;;;;;;;8.65;4.63;;;;;;;;;;5090167;28;20028;-39
2022/11/23 19:30:32;;;;;;;5.78;3.40;;;;;;;;;;5090044;28;20027;-39
2022/11/23 19:32:58;;;;;;;5.03;3.20;;;;;;;;;;5089979;28;20039;-39
2022/11/23 19:35:24;;;;;;;4.93;3.30;;;;;;;;;;5090116;28;20052;-39
2022/11/23 19:37:51;;;;;;;5.38;3.30;;;;;;;;;;5089770;28;20119;-39
2022/11/23 19:40:17;;;;;;;5.57;3.65;;;;;;;;;;5071799;28;20433;-39
2022/11/23 19:42:43;;;;;;;5.25;3.28;;;;;;;;;;5090469;28;20530;-39
2022/11/23 19:45:09;;;;;;;6.20;3.90;;;;;;;;;;5089870;28;20032;-39
2022/11/23 19:47:35;;;;;;;6.30;3.72;;;;;;;;;;5089936;28;20036;-39
2022/11/23 19:50:01;;;;;;;6.97;4.07;;;;;;;;;;5089711;28;20025;-39
2022/11/23 19:52:28;;;;;;;6.15;3.70;;;;;;;;;;5089707;28;20031;-39
2022/11/23 19:54:54;;;;;;;5.88;4.05;;;;;;;;;;5089569;28;20017;-39
2022/11/23 19:57:20;;;;;;;7.05;4.00;;;;;;;;;;5089695;28;20021;-39
2022/11/23 19:59:46;;;;;;;7.82;4.75;;;;;;;;;;5089498;28;20464;-39
2022/11/23 20:02:25;;;;;;;8.50;5.10;;;;;;;;;;5090126;28;20504;-39
2022/11/23 20:04:51;;;;;;;10.00;5.78;;;;;;;;;;5089484;28;20020;-39
2022/11/23 20:07:18;;;;;;;13.05;6.78;;;;;;;;;;5099802;28;20046;-39